sensor_id;sensor_type;location;lat;lon;timestamp;temperature;humidity
66608;DHT22;53462;39.616;8.824;2023-03-19T00:02:21;13.50;99.90
66608;DHT22;53462;39.616;8.824;2023-03-19T00:04:47;13.50;99.90
66608;DHT22;53462;39.616;8.824;2023-03-19T00:07:14;13.50;99.90
66608;DHT22;53462;39.616;8.824;2023-03-19T00:09:41;13.60;99.90
66608;DHT22;53462;39.616;8.824;2023-03-19T00:12:08;13.60;99.90
66608;DHT22;53462;39.616;8.824;2023-03-19T00:14:34;13.60;99.90
66608;DHT22;53462;39.616;8.824;2023-03-19T00:17:00;13.50;99.90
66608;DHT22;53462;39.616;8.824;2023-03-19T00:19:26;13.50;99.90
66608;DHT22;53462;39.616;8.824;2023-03-19T00:21:52;13.50;99.90
66608;DHT22;53462;39.616;8.824;2023-03-19T00:24:18;13.40;99.90
66608;DHT22;53462;39.616;8.824;2023-03-19T00:26:45;13.30;99.90
66608;DHT22;53462;39.616;8.824;2023-03-19T00:29:11;13.40;99.90
66608;DHT22;53462;39.616;8.824;2023-03-19T00:31:38;13.50;99.90
66608;DHT22;53462;39.616;8.824;2023-03-19T00:34:05;13.30;99.90
66608;DHT22;53462;39.616;8.824;2023-03-19T00:36:31;13.20;99.90
66608;DHT22;53462;39.616;8.824;2023-03-19T00:38:57;13.10;99.90
66608;DHT22;53462;39.616;8.824;2023-03-19T00:41:23;13.00;99.90
66608;DHT22;53462;39.616;8.824;2023-03-19T00:43:54;13.10;99.90
66608;DHT22;53462;39.616;8.824;2023-03-19T00:46:20;13.20;99.90
66608;DHT22;53462;39.616;8.824;2023-03-19T00:48:48;13.10;99.90
66608;DHT22;53462;39.616;8.824;2023-03-19T00:51:16;13.10;99.90
66608;DHT22;53462;39.616;8.824;2023-03-19T00:53:43;13.00;99.90
66608;DHT22;53462;39.616;8.824;2023-03-19T00:56:11;13.00;99.90
66608;DHT22;53462;39.616;8.824;2023-03-19T00:58:37;13.00;99.90
66608;DHT22;53462;39.616;8.824;2023-03-19T01:01:04;13.10;99.90
66608;DHT22;53462;39.616;8.824;2023-03-19T01:03:30;13.20;99.90
66608;DHT22;53462;39.616;8.824;2023-03-19T01:05:59;13.30;99.90
66608;DHT22;53462;39.616;8.824;2023-03-19T01:08:25;13.30;99.90
66608;DHT22;53462;39.616;8.824;2023-03-19T01:10:52;13.30;99.90
66608;DHT22;53462;39.616;8.824;2023-03-19T01:13:18;13.30;99.90
66608;DHT22;53462;39.616;8.824;2023-03-19T01:15:44;13.30;99.90
66608;DHT22;53462;39.616;8.824;2023-03-19T01:18:11;13.30;99.90
66608;DHT22;53462;39.616;8.824;2023-03-19T01:20:39;13.10;99.90
66608;DHT22;53462;39.616;8.824;2023-03-19T01:23:06;12.90;99.90
66608;DHT22;53462;39.616;8.824;2023-03-19T01:25:34;12.90;99.90
66608;DHT22;53462;39.616;8.824;2023-03-19T01:28:01;13.10;99.90
66608;DHT22;53462;39.616;8.824;2023-03-19T01:30:28;13.30;99.90
66608;DHT22;53462;39.616;8.824;2023-03-19T01:33:15;13.40;99.90
66608;DHT22;53462;39.616;8.824;2023-03-19T01:35:56;13.40;99.90
66608;DHT22;53462;39.616;8.824;2023-03-19T01:38:29;13.40;99.90
66608;DHT22;53462;39.616;8.824;2023-03-19T01:41:00;13.20;99.90
66608;DHT22;53462;39.616;8.824;2023-03-19T01:43:28;13.10;99.90
66608;DHT22;53462;39.616;8.824;2023-03-19T01:46:19;12.90;99.90
66608;DHT22;53462;39.616;8.824;2023-03-19T01:49:07;12.90;99.90
66608;DHT22;53462;39.616;8.824;2023-03-19T01:51:38;12.90;99.90
66608;DHT22;53462;39.616;8.824;2023-03-19T01:54:17;12.90;99.90
66608;DHT22;53462;39.616;8.824;2023-03-19T01:56:57;13.10;99.90
66608;DHT22;53462;39.616;8.824;2023-03-19T01:59:53;13.10;99.90
66608;DHT22;53462;39.616;8.824;2023-03-19T02:02:34;13.00;99.90
66608;DHT22;53462;39.616;8.824;2023-03-19T02:05:21;13.10;99.90
66608;DHT22;53462;39.616;8.824;2023-03-19T02:07:55;13.20;99.90
66608;DHT22;53462;39.616;8.824;2023-03-19T02:10:22;13.30;99.90
66608;DHT22;53462;39.616;8.824;2023-03-19T02:12:48;13.30;99.90
66608;DHT22;53462;39.616;8.824;2023-03-19T02:15:14;13.30;99.90
66608;DHT22;53462;39.616;8.824;2023-03-19T02:17:41;13.40;99.90
66608;DHT22;53462;39.616;8.824;2023-03-19T02:20:30;13.30;99.90
66608;DHT22;53462;39.616;8.824;2023-03-19T02:23:19;13.30;99.90
66608;DHT22;53462;39.616;8.824;2023-03-19T02:28:27;13.20;99.90
66608;DHT22;53462;39.616;8.824;2023-03-19T02:30:53;13.20;99.90
66608;DHT22;53462;39.616;8.824;2023-03-19T02:33:19;13.20;99.90
66608;DHT22;53462;39.616;8.824;2023-03-19T02:35:48;13.30;99.90
66608;DHT22;53462;39.616;8.824;2023-03-19T02:38:16;13.40;99.90
66608;DHT22;53462;39.616;8.824;2023-03-19T02:40:55;13.30;99.90
66608;DHT22;53462;39.616;8.824;2023-03-19T02:43:22;13.20;99.90
66608;DHT22;53462;39.616;8.824;2023-03-19T02:45:50;13.20;99.90
66608;DHT22;53462;39.616;8.824;2023-03-19T02:48:16;13.30;99.90
66608;DHT22;53462;39.616;8.824;2023-03-19T02:50:43;13.30;99.90
66608;DHT22;53462;39.616;8.824;2023-03-19T02:53:09;13.30;99.90
66608;DHT22;53462;39.616;8.824;2023-03-19T02:55:35;13.40;99.90
66608;DHT22;53462;39.616;8.824;2023-03-19T02:58:01;13.40;99.90
66608;DHT22;53462;39.616;8.824;2023-03-19T03:00:28;13.40;99.90
66608;DHT22;53462;39.616;8.824;2023-03-19T03:02:55;13.40;99.90
66608;DHT22;53462;39.616;8.824;2023-03-19T03:05:22;13.40;99.90
66608;DHT22;53462;39.616;8.824;2023-03-19T03:07:48;13.40;99.90
66608;DHT22;53462;39.616;8.824;2023-03-19T03:10:15;13.40;99.90
66608;DHT22;53462;39.616;8.824;2023-03-19T03:12:42;13.30;99.90
66608;DHT22;53462;39.616;8.824;2023-03-19T03:15:09;13.30;99.90
66608;DHT22;53462;39.616;8.824;2023-03-19T03:17:39;13.30;99.90
66608;DHT22;53462;39.616;8.824;2023-03-19T03:20:06;13.30;99.90
66608;DHT22;53462;39.616;8.824;2023-03-19T03:22:32;13.20;99.90
66608;DHT22;53462;39.616;8.824;2023-03-19T03:24:58;13.00;99.90
66608;DHT22;53462;39.616;8.824;2023-03-19T03:27:24;12.90;99.90
66608;DHT22;53462;39.616;8.824;2023-03-19T03:29:51;12.80;99.90
66608;DHT22;53462;39.616;8.824;2023-03-19T03:32:17;12.80;99.90
66608;DHT22;53462;39.616;8.824;2023-03-19T03:34:43;12.90;99.90
66608;DHT22;53462;39.616;8.824;2023-03-19T03:37:11;12.80;99.90
66608;DHT22;53462;39.616;8.824;2023-03-19T03:39:37;12.80;99.90
66608;DHT22;53462;39.616;8.824;2023-03-19T03:42:03;12.90;99.90
66608;DHT22;53462;39.616;8.824;2023-03-19T03:44:31;12.80;99.90
66608;DHT22;53462;39.616;8.824;2023-03-19T03:46:57;12.70;99.90
66608;DHT22;53462;39.616;8.824;2023-03-19T03:49:23;12.60;99.90
66608;DHT22;53462;39.616;8.824;2023-03-19T03:51:49;12.50;99.90
66608;DHT22;53462;39.616;8.824;2023-03-19T03:54:16;12.60;99.90
66608;DHT22;53462;39.616;8.824;2023-03-19T03:56:42;12.70;99.90
66608;DHT22;53462;39.616;8.824;2023-03-19T03:59:08;12.50;99.90
66608;DHT22;53462;39.616;8.824;2023-03-19T04:01:34;12.40;99.90
66608;DHT22;53462;39.616;8.824;2023-03-19T04:04:00;12.50;99.90
66608;DHT22;53462;39.616;8.824;2023-03-19T04:06:27;12.40;99.90
66608;DHT22;53462;39.616;8.824;2023-03-19T04:09:13;12.20;99.90
66608;DHT22;53462;39.616;8.824;2023-03-19T04:11:40;12.30;99.90
66608;DHT22;53462;39.616;8.824;2023-03-19T04:14:07;12.30;99.90
66608;DHT22;53462;39.616;8.824;2023-03-19T04:16:34;12.50;99.90
66608;DHT22;53462;39.616;8.824;2023-03-19T04:19:00;12.60;99.90
66608;DHT22;53462;39.616;8.824;2023-03-19T04:21:27;12.50;99.90
66608;DHT22;53462;39.616;8.824;2023-03-19T04:23:54;12.40;99.90
66608;DHT22;53462;39.616;8.824;2023-03-19T04:26:20;12.50;99.90
66608;DHT22;53462;39.616;8.824;2023-03-19T04:28:46;12.40;99.90
66608;DHT22;53462;39.616;8.824;2023-03-19T04:31:12;12.50;99.90
66608;DHT22;53462;39.616;8.824;2023-03-19T04:33:42;12.50;99.90
66608;DHT22;53462;39.616;8.824;2023-03-19T04:36:08;12.60;99.90
66608;DHT22;53462;39.616;8.824;2023-03-19T04:38:35;12.60;99.90
66608;DHT22;53462;39.616;8.824;2023-03-19T04:41:01;12.60;99.90
66608;DHT22;53462;39.616;8.824;2023-03-19T04:43:29;12.50;99.90
66608;DHT22;53462;39.616;8.824;2023-03-19T04:45:56;12.60;99.90
66608;DHT22;53462;39.616;8.824;2023-03-19T04:48:22;12.60;99.90
66608;DHT22;53462;39.616;8.824;2023-03-19T04:50:50;12.50;99.90
66608;DHT22;53462;39.616;8.824;2023-03-19T04:53:18;12.50;99.90
66608;DHT22;53462;39.616;8.824;2023-03-19T04:55:47;12.60;99.90
66608;DHT22;53462;39.616;8.824;2023-03-19T04:58:16;12.60;99.90
66608;DHT22;53462;39.616;8.824;2023-03-19T05:00:43;12.50;99.90
66608;DHT22;53462;39.616;8.824;2023-03-19T05:03:15;12.50;99.90
66608;DHT22;53462;39.616;8.824;2023-03-19T05:05:42;12.60;99.90
66608;DHT22;53462;39.616;8.824;2023-03-19T05:08:09;12.60;99.90
66608;DHT22;53462;39.616;8.824;2023-03-19T05:10:36;12.60;99.90
66608;DHT22;53462;39.616;8.824;2023-03-19T05:13:03;12.50;99.90
66608;DHT22;53462;39.616;8.824;2023-03-19T05:15:30;12.50;99.90
66608;DHT22;53462;39.616;8.824;2023-03-19T05:18:03;12.40;99.90
66608;DHT22;53462;39.616;8.824;2023-03-19T05:20:36;12.40;99.90
66608;DHT22;53462;39.616;8.824;2023-03-19T05:23:05;12.40;99.90
66608;DHT22;53462;39.616;8.824;2023-03-19T05:25:45;12.40;99.90
66608;DHT22;53462;39.616;8.824;2023-03-19T05:28:15;12.30;99.90
66608;DHT22;53462;39.616;8.824;2023-03-19T05:30:42;12.20;99.90
66608;DHT22;53462;39.616;8.824;2023-03-19T05:33:24;12.10;99.90
66608;DHT22;53462;39.616;8.824;2023-03-19T05:35:52;12.00;99.90
66608;DHT22;53462;39.616;8.824;2023-03-19T05:38:24;11.90;99.90
66608;DHT22;53462;39.616;8.824;2023-03-19T05:40:55;11.90;99.90
66608;DHT22;53462;39.616;8.824;2023-03-19T05:43:33;12.00;99.90
66608;DHT22;53462;39.616;8.824;2023-03-19T05:46:04;12.00;99.90
66608;DHT22;53462;39.616;8.824;2023-03-19T05:48:32;11.90;99.90
66608;DHT22;53462;39.616;8.824;2023-03-19T05:50:59;12.10;99.90
66608;DHT22;53462;39.616;8.824;2023-03-19T05:53:30;12.20;99.90
66608;DHT22;53462;39.616;8.824;2023-03-19T05:56:16;12.30;99.90
66608;DHT22;53462;39.616;8.824;2023-03-19T05:58:57;12.30;99.90
66608;DHT22;53462;39.616;8.824;2023-03-19T06:01:29;12.40;99.90
66608;DHT22;53462;39.616;8.824;2023-03-19T06:03:58;12.40;99.90
66608;DHT22;53462;39.616;8.824;2023-03-19T06:06:24;12.50;99.90
66608;DHT22;53462;39.616;8.824;2023-03-19T06:08:52;12.40;99.90
66608;DHT22;53462;39.616;8.824;2023-03-19T06:11:39;12.10;99.90
66608;DHT22;53462;39.616;8.824;2023-03-19T06:14:31;12.00;99.90
66608;DHT22;53462;39.616;8.824;2023-03-19T06:17:30;12.10;99.90
66608;DHT22;53462;39.616;8.824;2023-03-19T06:20:01;12.30;99.90
66608;DHT22;53462;39.616;8.824;2023-03-19T06:22:28;12.40;99.90
66608;DHT22;53462;39.616;8.824;2023-03-19T06:24:54;12.60;99.90
66608;DHT22;53462;39.616;8.824;2023-03-19T06:27:20;12.80;99.90
66608;DHT22;53462;39.616;8.824;2023-03-19T06:29:46;12.90;99.90
66608;DHT22;53462;39.616;8.824;2023-03-19T06:32:19;13.00;99.90
66608;DHT22;53462;39.616;8.824;2023-03-19T06:34:46;13.10;99.90
66608;DHT22;53462;39.616;8.824;2023-03-19T06:37:13;13.20;99.90
66608;DHT22;53462;39.616;8.824;2023-03-19T06:39:38;13.20;99.90
66608;DHT22;53462;39.616;8.824;2023-03-19T06:42:04;13.20;99.90
66608;DHT22;53462;39.616;8.824;2023-03-19T06:44:30;13.30;99.90
66608;DHT22;53462;39.616;8.824;2023-03-19T06:46:56;13.40;99.90
66608;DHT22;53462;39.616;8.824;2023-03-19T06:49:22;13.40;99.90
66608;DHT22;53462;39.616;8.824;2023-03-19T06:51:48;13.40;99.90
66608;DHT22;53462;39.616;8.824;2023-03-19T06:54:14;13.60;99.90
66608;DHT22;53462;39.616;8.824;2023-03-19T06:56:40;13.90;99.90
66608;DHT22;53462;39.616;8.824;2023-03-19T06:59:06;13.80;99.90
66608;DHT22;53462;39.616;8.824;2023-03-19T07:01:32;14.00;99.90
66608;DHT22;53462;39.616;8.824;2023-03-19T07:03:58;14.30;99.90
66608;DHT22;53462;39.616;8.824;2023-03-19T07:06:24;14.40;99.90
66608;DHT22;53462;39.616;8.824;2023-03-19T07:08:50;14.80;99.90
66608;DHT22;53462;39.616;8.824;2023-03-19T07:11:16;15.10;99.90
66608;DHT22;53462;39.616;8.824;2023-03-19T07:13:42;15.30;99.90
66608;DHT22;53462;39.616;8.824;2023-03-19T07:16:08;15.40;99.90
66608;DHT22;53462;39.616;8.824;2023-03-19T07:18:34;15.40;99.90
66608;DHT22;53462;39.616;8.824;2023-03-19T07:21:00;15.30;99.90
66608;DHT22;53462;39.616;8.824;2023-03-19T07:23:26;15.60;99.90
66608;DHT22;53462;39.616;8.824;2023-03-19T07:25:52;15.80;99.90
66608;DHT22;53462;39.616;8.824;2023-03-19T07:28:18;16.00;99.90
66608;DHT22;53462;39.616;8.824;2023-03-19T07:30:44;16.40;98.40
66608;DHT22;53462;39.616;8.824;2023-03-19T07:33:10;16.60;98.70
66608;DHT22;53462;39.616;8.824;2023-03-19T07:35:36;16.40;97.90
66608;DHT22;53462;39.616;8.824;2023-03-19T07:38:02;16.50;97.60
66608;DHT22;53462;39.616;8.824;2023-03-19T07:40:28;16.90;96.80
66608;DHT22;53462;39.616;8.824;2023-03-19T07:42:54;17.50;95.20
66608;DHT22;53462;39.616;8.824;2023-03-19T07:45:20;17.70;94.00
66608;DHT22;53462;39.616;8.824;2023-03-19T07:47:48;18.30;90.70
66608;DHT22;53462;39.616;8.824;2023-03-19T07:50:14;18.70;87.90
66608;DHT22;53462;39.616;8.824;2023-03-19T07:52:40;18.80;88.40
66608;DHT22;53462;39.616;8.824;2023-03-19T07:55:06;19.00;86.40
66608;DHT22;53462;39.616;8.824;2023-03-19T07:57:32;19.40;83.60
66608;DHT22;53462;39.616;8.824;2023-03-19T07:59:58;19.20;84.10
66608;DHT22;53462;39.616;8.824;2023-03-19T08:02:24;19.80;81.80
66608;DHT22;53462;39.616;8.824;2023-03-19T08:04:49;20.50;80.00
66608;DHT22;53462;39.616;8.824;2023-03-19T08:07:16;20.10;80.30
66608;DHT22;53462;39.616;8.824;2023-03-19T08:09:42;20.70;77.50
66608;DHT22;53462;39.616;8.824;2023-03-19T08:12:08;21.40;76.80
66608;DHT22;53462;39.616;8.824;2023-03-19T08:14:34;21.00;77.00
66608;DHT22;53462;39.616;8.824;2023-03-19T08:17:00;20.40;77.40
66608;DHT22;53462;39.616;8.824;2023-03-19T08:19:26;20.90;76.10
66608;DHT22;53462;39.616;8.824;2023-03-19T08:21:52;20.30;78.20
66608;DHT22;53462;39.616;8.824;2023-03-19T08:24:18;21.50;74.70
66608;DHT22;53462;39.616;8.824;2023-03-19T08:26:44;21.40;73.80
66608;DHT22;53462;39.616;8.824;2023-03-19T08:29:10;19.60;78.50
66608;DHT22;53462;39.616;8.824;2023-03-19T08:31:37;18.90;81.70
66608;DHT22;53462;39.616;8.824;2023-03-19T08:34:03;18.50;84.20
66608;DHT22;53462;39.616;8.824;2023-03-19T08:36:30;17.90;86.40
66608;DHT22;53462;39.616;8.824;2023-03-19T08:38:56;18.10;87.40
66608;DHT22;53462;39.616;8.824;2023-03-19T08:41:23;18.00;86.70
66608;DHT22;53462;39.616;8.824;2023-03-19T08:43:50;17.90;88.60
66608;DHT22;53462;39.616;8.824;2023-03-19T08:46:16;18.00;88.30
66608;DHT22;53462;39.616;8.824;2023-03-19T08:48:42;17.80;88.40
66608;DHT22;53462;39.616;8.824;2023-03-19T08:51:09;17.60;89.60
66608;DHT22;53462;39.616;8.824;2023-03-19T08:53:35;17.40;90.30
66608;DHT22;53462;39.616;8.824;2023-03-19T08:56:04;17.60;90.70
66608;DHT22;53462;39.616;8.824;2023-03-19T08:58:31;17.60;91.50
66608;DHT22;53462;39.616;8.824;2023-03-19T09:01:11;17.70;91.00
66608;DHT22;53462;39.616;8.824;2023-03-19T09:03:40;17.80;88.20
66608;DHT22;53462;39.616;8.824;2023-03-19T09:06:11;17.90;88.50
66608;DHT22;53462;39.616;8.824;2023-03-19T09:08:37;17.40;88.20
66608;DHT22;53462;39.616;8.824;2023-03-19T09:11:04;17.30;89.40
66608;DHT22;53462;39.616;8.824;2023-03-19T09:13:30;17.30;89.40
66608;DHT22;53462;39.616;8.824;2023-03-19T09:15:57;17.20;90.50
66608;DHT22;53462;39.616;8.824;2023-03-19T09:18:23;17.30;90.90
66608;DHT22;53462;39.616;8.824;2023-03-19T09:20:50;17.30;89.00
66608;DHT22;53462;39.616;8.824;2023-03-19T09:23:17;17.00;91.00
66608;DHT22;53462;39.616;8.824;2023-03-19T09:25:43;17.10;93.20
66608;DHT22;53462;39.616;8.824;2023-03-19T09:28:08;16.90;94.30
66608;DHT22;53462;39.616;8.824;2023-03-19T09:30:35;17.10;94.30
66608;DHT22;53462;39.616;8.824;2023-03-19T09:33:01;16.80;95.00
66608;DHT22;53462;39.616;8.824;2023-03-19T09:35:28;16.70;96.50
66608;DHT22;53462;39.616;8.824;2023-03-19T09:37:57;17.00;96.50
66608;DHT22;53462;39.616;8.824;2023-03-19T09:40:29;16.80;95.30
66608;DHT22;53462;39.616;8.824;2023-03-19T09:46:05;16.80;94.80
66608;DHT22;53462;39.616;8.824;2023-03-19T09:48:42;16.90;95.90
66608;DHT22;53462;39.616;8.824;2023-03-19T09:51:17;16.80;97.00
66608;DHT22;53462;39.616;8.824;2023-03-19T09:54:02;16.80;95.30
66608;DHT22;53462;39.616;8.824;2023-03-19T09:56:30;16.50;95.90
66608;DHT22;53462;39.616;8.824;2023-03-19T09:58:57;16.70;95.30
66608;DHT22;53462;39.616;8.824;2023-03-19T10:01:34;16.90;94.50
66608;DHT22;53462;39.616;8.824;2023-03-19T10:07:05;17.40;92.40
66608;DHT22;53462;39.616;8.824;2023-03-19T10:15:21;18.50;87.20
66608;DHT22;53462;39.616;8.824;2023-03-19T10:18:20;18.60;86.10
66608;DHT22;53462;39.616;8.824;2023-03-19T10:21:05;18.80;84.50
66608;DHT22;53462;39.616;8.824;2023-03-19T10:26:29;19.00;81.90
66608;DHT22;53462;39.616;8.824;2023-03-19T10:29:25;19.30;81.00
66608;DHT22;53462;39.616;8.824;2023-03-19T10:31:52;19.60;78.00
66608;DHT22;53462;39.616;8.824;2023-03-19T10:34:32;20.30;77.50
66608;DHT22;53462;39.616;8.824;2023-03-19T10:39:47;19.60;81.20
66608;DHT22;53462;39.616;8.824;2023-03-19T10:45:31;20.00;77.80
66608;DHT22;53462;39.616;8.824;2023-03-19T10:47:59;20.80;75.00
66608;DHT22;53462;39.616;8.824;2023-03-19T10:53:33;19.30;78.20
66608;DHT22;53462;39.616;8.824;2023-03-19T11:01:20;18.30;83.60
66608;DHT22;53462;39.616;8.824;2023-03-19T11:03:51;18.30;84.10
66608;DHT22;53462;39.616;8.824;2023-03-19T11:06:34;18.20;83.00
66608;DHT22;53462;39.616;8.824;2023-03-19T11:11:45;18.50;83.20
66608;DHT22;53462;39.616;8.824;2023-03-19T11:14:16;18.50;81.10
66608;DHT22;53462;39.616;8.824;2023-03-19T11:16:56;18.30;82.70
66608;DHT22;53462;39.616;8.824;2023-03-19T11:19:28;18.50;81.70
66608;DHT22;53462;39.616;8.824;2023-03-19T11:21:59;18.60;81.30
66608;DHT22;53462;39.616;8.824;2023-03-19T11:24:26;18.30;82.30
66608;DHT22;53462;39.616;8.824;2023-03-19T11:26:55;18.70;82.50
66608;DHT22;53462;39.616;8.824;2023-03-19T11:29:22;18.80;80.10
66608;DHT22;53462;39.616;8.824;2023-03-19T11:34:48;18.60;80.90
66608;DHT22;53462;39.616;8.824;2023-03-19T11:37:49;19.00;80.00
66608;DHT22;53462;39.616;8.824;2023-03-19T12:01:58;20.10;75.10
66608;DHT22;53462;39.616;8.824;2023-03-19T12:04:54;19.90;76.00
66608;DHT22;53462;39.616;8.824;2023-03-19T12:13:05;20.10;74.60
66608;DHT22;53462;39.616;8.824;2023-03-19T12:15:47;19.80;75.60
66608;DHT22;53462;39.616;8.824;2023-03-19T12:21:33;19.10;76.70
66608;DHT22;53462;39.616;8.824;2023-03-19T12:32:03;18.70;78.90
66608;DHT22;53462;39.616;8.824;2023-03-19T12:34:37;18.40;79.70
66608;DHT22;53462;39.616;8.824;2023-03-19T12:42:38;18.80;79.00
66608;DHT22;53462;39.616;8.824;2023-03-19T12:45:30;19.10;77.70
66608;DHT22;53462;39.616;8.824;2023-03-19T12:48:24;18.90;77.80
66608;DHT22;53462;39.616;8.824;2023-03-19T12:50:55;19.30;76.60
66608;DHT22;53462;39.616;8.824;2023-03-19T12:56:16;19.60;76.40
66608;DHT22;53462;39.616;8.824;2023-03-19T13:01:20;19.40;76.70
66608;DHT22;53462;39.616;8.824;2023-03-19T13:03:57;19.60;76.50
66608;DHT22;53462;39.616;8.824;2023-03-19T13:06:32;19.90;75.30
66608;DHT22;53462;39.616;8.824;2023-03-19T13:11:59;19.20;77.10
66608;DHT22;53462;39.616;8.824;2023-03-19T13:17:24;19.30;78.20
66608;DHT22;53462;39.616;8.824;2023-03-19T13:19:53;18.90;78.60
66608;DHT22;53462;39.616;8.824;2023-03-19T13:22:23;19.30;79.00
66608;DHT22;53462;39.616;8.824;2023-03-19T13:24:50;19.20;77.90
66608;DHT22;53462;39.616;8.824;2023-03-19T13:27:38;19.10;78.20
66608;DHT22;53462;39.616;8.824;2023-03-19T13:32:40;19.30;78.10
66608;DHT22;53462;39.616;8.824;2023-03-19T13:35:46;19.60;77.00
66608;DHT22;53462;39.616;8.824;2023-03-19T13:38:16;19.30;78.30
66608;DHT22;53462;39.616;8.824;2023-03-19T13:40:44;19.70;77.70
66608;DHT22;53462;39.616;8.824;2023-03-19T13:43:39;19.30;78.30
66608;DHT22;53462;39.616;8.824;2023-03-19T13:54:19;18.80;79.40
66608;DHT22;53462;39.616;8.824;2023-03-19T13:59:37;18.60;79.80
66608;DHT22;53462;39.616;8.824;2023-03-19T14:05:06;19.10;79.40
66608;DHT22;53462;39.616;8.824;2023-03-19T14:07:37;19.20;80.20
66608;DHT22;53462;39.616;8.824;2023-03-19T14:10:28;19.20;78.70
66608;DHT22;53462;39.616;8.824;2023-03-19T14:13:08;19.40;80.40
66608;DHT22;53462;39.616;8.824;2023-03-19T14:15:40;19.70;81.40
66608;DHT22;53462;39.616;8.824;2023-03-19T14:18:20;19.80;80.30
66608;DHT22;53462;39.616;8.824;2023-03-19T14:21:01;19.60;81.00
66608;DHT22;53462;39.616;8.824;2023-03-19T14:23:29;19.50;81.00
66608;DHT22;53462;39.616;8.824;2023-03-19T14:26:04;19.40;80.50
66608;DHT22;53462;39.616;8.824;2023-03-19T14:36:46;19.50;77.90
66608;DHT22;53462;39.616;8.824;2023-03-19T14:39:27;19.60;79.70
66608;DHT22;53462;39.616;8.824;2023-03-19T14:42:06;19.70;78.10
66608;DHT22;53462;39.616;8.824;2023-03-19T14:55:35;19.80;80.30
66608;DHT22;53462;39.616;8.824;2023-03-19T14:58:02;20.60;79.00
66608;DHT22;53462;39.616;8.824;2023-03-19T15:00:40;20.60;78.80
66608;DHT22;53462;39.616;8.824;2023-03-19T15:05:45;20.20;79.80
66608;DHT22;53462;39.616;8.824;2023-03-19T15:08:18;20.30;80.60
66608;DHT22;53462;39.616;8.824;2023-03-19T15:17:00;20.00;83.80
66608;DHT22;53462;39.616;8.824;2023-03-19T15:19:30;20.00;84.00
66608;DHT22;53462;39.616;8.824;2023-03-19T15:22:22;19.70;82.90
66608;DHT22;53462;39.616;8.824;2023-03-19T15:24:50;19.80;83.70
66608;DHT22;53462;39.616;8.824;2023-03-19T15:27:21;19.80;84.40
66608;DHT22;53462;39.616;8.824;2023-03-19T15:29:48;20.10;84.40
66608;DHT22;53462;39.616;8.824;2023-03-19T15:35:00;20.00;85.10
66608;DHT22;53462;39.616;8.824;2023-03-19T15:37:28;19.50;86.60
66608;DHT22;53462;39.616;8.824;2023-03-19T15:39:56;19.30;88.60
66608;DHT22;53462;39.616;8.824;2023-03-19T15:42:25;19.10;88.50
66608;DHT22;53462;39.616;8.824;2023-03-19T15:44:56;18.80;90.10
66608;DHT22;53462;39.616;8.824;2023-03-19T15:47:26;18.30;91.30
66608;DHT22;53462;39.616;8.824;2023-03-19T15:49:58;18.40;91.70
66608;DHT22;53462;39.616;8.824;2023-03-19T15:52:25;18.20;92.60
66608;DHT22;53462;39.616;8.824;2023-03-19T15:54:53;18.00;93.30
66608;DHT22;53462;39.616;8.824;2023-03-19T15:57:22;18.20;93.70
66608;DHT22;53462;39.616;8.824;2023-03-19T15:59:52;17.90;93.90
66608;DHT22;53462;39.616;8.824;2023-03-19T16:02:31;17.80;95.00
66608;DHT22;53462;39.616;8.824;2023-03-19T16:04:59;17.70;95.30
66608;DHT22;53462;39.616;8.824;2023-03-19T16:07:26;17.50;95.80
66608;DHT22;53462;39.616;8.824;2023-03-19T16:09:58;17.80;96.50
66608;DHT22;53462;39.616;8.824;2023-03-19T16:12:35;17.90;95.40
66608;DHT22;53462;39.616;8.824;2023-03-19T16:15:41;17.50;96.00
66608;DHT22;53462;39.616;8.824;2023-03-19T16:24:00;17.40;96.10
66608;DHT22;53462;39.616;8.824;2023-03-19T16:26:45;17.30;96.10
66608;DHT22;53462;39.616;8.824;2023-03-19T16:31:58;17.60;94.90
66608;DHT22;53462;39.616;8.824;2023-03-19T16:36:59;17.70;94.70
66608;DHT22;53462;39.616;8.824;2023-03-19T16:39:35;17.70;94.20
66608;DHT22;53462;39.616;8.824;2023-03-19T16:42:26;17.70;94.50
66608;DHT22;53462;39.616;8.824;2023-03-19T16:44:52;17.80;94.60
66608;DHT22;53462;39.616;8.824;2023-03-19T16:47:18;17.80;93.40
66608;DHT22;53462;39.616;8.824;2023-03-19T16:49:45;17.40;93.50
66608;DHT22;53462;39.616;8.824;2023-03-19T16:52:23;17.40;94.10
66608;DHT22;53462;39.616;8.824;2023-03-19T16:54:50;17.40;94.60
66608;DHT22;53462;39.616;8.824;2023-03-19T16:57:16;17.40;94.00
66608;DHT22;53462;39.616;8.824;2023-03-19T16:59:44;17.50;94.10
66608;DHT22;53462;39.616;8.824;2023-03-19T17:02:15;17.50;94.00
66608;DHT22;53462;39.616;8.824;2023-03-19T17:04:42;17.40;94.90
66608;DHT22;53462;39.616;8.824;2023-03-19T17:07:08;17.30;95.40
66608;DHT22;53462;39.616;8.824;2023-03-19T17:09:35;17.00;95.80
66608;DHT22;53462;39.616;8.824;2023-03-19T17:12:02;16.90;96.80
66608;DHT22;53462;39.616;8.824;2023-03-19T17:14:30;16.60;97.60
66608;DHT22;53462;39.616;8.824;2023-03-19T17:16:56;16.50;98.50
66608;DHT22;53462;39.616;8.824;2023-03-19T17:19:25;16.40;99.30
66608;DHT22;53462;39.616;8.824;2023-03-19T17:21:55;16.20;99.90
66608;DHT22;53462;39.616;8.824;2023-03-19T17:24:30;16.30;99.90
66608;DHT22;53462;39.616;8.824;2023-03-19T17:26:59;16.10;99.90
66608;DHT22;53462;39.616;8.824;2023-03-19T17:29:25;16.20;99.90
66608;DHT22;53462;39.616;8.824;2023-03-19T17:31:52;16.30;99.90
66608;DHT22;53462;39.616;8.824;2023-03-19T17:34:27;16.20;99.90
66608;DHT22;53462;39.616;8.824;2023-03-19T17:36:57;15.80;99.90
66608;DHT22;53462;39.616;8.824;2023-03-19T17:39:25;15.90;99.90
66608;DHT22;53462;39.616;8.824;2023-03-19T17:41:51;16.00;99.90
66608;DHT22;53462;39.616;8.824;2023-03-19T17:44:19;16.00;99.90
66608;DHT22;53462;39.616;8.824;2023-03-19T17:46:46;15.70;99.90
66608;DHT22;53462;39.616;8.824;2023-03-19T17:49:21;15.50;99.90
66608;DHT22;53462;39.616;8.824;2023-03-19T17:51:49;15.40;99.90
66608;DHT22;53462;39.616;8.824;2023-03-19T17:54:15;15.40;99.90
66608;DHT22;53462;39.616;8.824;2023-03-19T17:56:41;15.30;99.90
66608;DHT22;53462;39.616;8.824;2023-03-19T17:59:09;15.30;99.90
66608;DHT22;53462;39.616;8.824;2023-03-19T18:01:35;15.30;99.90
66608;DHT22;53462;39.616;8.824;2023-03-19T18:04:02;15.20;99.90
66608;DHT22;53462;39.616;8.824;2023-03-19T18:06:34;15.30;99.90
66608;DHT22;53462;39.616;8.824;2023-03-19T18:09:01;15.20;99.90
66608;DHT22;53462;39.616;8.824;2023-03-19T18:11:27;15.30;99.90
66608;DHT22;53462;39.616;8.824;2023-03-19T18:13:53;15.20;99.90
66608;DHT22;53462;39.616;8.824;2023-03-19T18:18:50;15.10;99.90
66608;DHT22;53462;39.616;8.824;2023-03-19T18:21:17;15.00;99.90
66608;DHT22;53462;39.616;8.824;2023-03-19T18:23:43;14.80;99.90